sensor_id;sensor_type;location;lat;lon;timestamp;P1;durP1;ratioP1;P2;durP2;ratioP2
462;SDS011;218;51.902;9.542;2022-11-20T00:01:33;45.80;;;33.80;;
462;SDS011;218;51.902;9.542;2022-11-20T00:04:00;47.63;;;34.78;;
462;SDS011;218;51.902;9.542;2022-11-20T00:06:28;36.88;;;27.00;;
462;SDS011;218;51.902;9.542;2022-11-20T00:08:56;26.98;;;19.15;;
462;SDS011;218;51.902;9.542;2022-11-20T00:11:24;24.52;;;19.08;;
462;SDS011;218;51.902;9.542;2022-11-20T00:13:52;26.13;;;20.20;;
462;SDS011;218;51.902;9.542;2022-11-20T00:16:23;30.45;;;21.73;;
462;SDS011;218;51.902;9.542;2022-11-20T00:18:52;28.42;;;23.17;;
462;SDS011;218;51.902;9.542;2022-11-20T00:21:20;29.42;;;23.02;;
462;SDS011;218;51.902;9.542;2022-11-20T00:23:48;30.80;;;21.20;;
462;SDS011;218;51.902;9.542;2022-11-20T00:26:16;26.58;;;19.25;;
462;SDS011;218;51.902;9.542;2022-11-20T00:28:44;31.23;;;22.85;;
462;SDS011;218;51.902;9.542;2022-11-20T00:31:16;29.08;;;21.95;;
462;SDS011;218;51.902;9.542;2022-11-20T00:33:44;27.13;;;22.45;;
462;SDS011;218;51.902;9.542;2022-11-20T00:36:13;30.67;;;23.08;;
462;SDS011;218;51.902;9.542;2022-11-20T00:38:41;28.50;;;22.60;;
462;SDS011;218;51.902;9.542;2022-11-20T00:41:11;24.20;;;18.58;;
462;SDS011;218;51.902;9.542;2022-11-20T00:43:40;22.08;;;16.30;;
462;SDS011;218;51.902;9.542;2022-11-20T00:46:08;18.20;;;13.30;;
462;SDS011;218;51.902;9.542;2022-11-20T00:48:36;12.23;;;9.95;;
462;SDS011;218;51.902;9.542;2022-11-20T00:51:03;11.75;;;10.55;;
462;SDS011;218;51.902;9.542;2022-11-20T00:53:32;11.77;;;10.57;;
462;SDS011;218;51.902;9.542;2022-11-20T00:56:01;13.48;;;11.27;;
462;SDS011;218;51.902;9.542;2022-11-20T00:58:30;12.95;;;11.18;;
462;SDS011;218;51.902;9.542;2022-11-20T01:01:01;11.88;;;10.13;;
462;SDS011;218;51.902;9.542;2022-11-20T01:03:30;14.80;;;11.15;;
462;SDS011;218;51.902;9.542;2022-11-20T01:05:59;13.85;;;11.90;;
462;SDS011;218;51.902;9.542;2022-11-20T01:08:28;12.23;;;10.48;;
462;SDS011;218;51.902;9.542;2022-11-20T01:10:59;12.23;;;10.65;;
462;SDS011;218;51.902;9.542;2022-11-20T01:13:27;13.02;;;9.75;;
462;SDS011;218;51.902;9.542;2022-11-20T01:16:04;13.70;;;10.40;;
462;SDS011;218;51.902;9.542;2022-11-20T01:18:32;12.25;;;10.50;;
462;SDS011;218;51.902;9.542;2022-11-20T01:21:00;13.73;;;10.50;;
462;SDS011;218;51.902;9.542;2022-11-20T01:23:30;10.93;;;9.90;;
462;SDS011;218;51.902;9.542;2022-11-20T01:26:00;11.85;;;10.10;;
462;SDS011;218;51.902;9.542;2022-11-20T01:28:28;12.00;;;10.82;;
462;SDS011;218;51.902;9.542;2022-11-20T01:30:56;12.45;;;10.98;;
462;SDS011;218;51.902;9.542;2022-11-20T01:33:23;14.93;;;11.02;;
462;SDS011;218;51.902;9.542;2022-11-20T01:35:50;17.02;;;11.43;;
462;SDS011;218;51.902;9.542;2022-11-20T01:38:18;15.98;;;13.35;;
462;SDS011;218;51.902;9.542;2022-11-20T01:40:53;14.75;;;12.52;;
462;SDS011;218;51.902;9.542;2022-11-20T01:43:23;20.70;;;15.45;;
462;SDS011;218;51.902;9.542;2022-11-20T01:45:58;19.08;;;15.50;;
462;SDS011;218;51.902;9.542;2022-11-20T01:48:41;16.67;;;12.77;;
462;SDS011;218;51.902;9.542;2022-11-20T01:51:17;17.65;;;12.88;;
462;SDS011;218;51.902;9.542;2022-11-20T01:53:50;16.33;;;12.13;;
462;SDS011;218;51.902;9.542;2022-11-20T01:56:20;16.33;;;11.93;;
462;SDS011;218;51.902;9.542;2022-11-20T01:58:51;19.65;;;13.80;;
462;SDS011;218;51.902;9.542;2022-11-20T02:01:20;15.65;;;13.93;;
462;SDS011;218;51.902;9.542;2022-11-20T02:03:47;19.60;;;13.35;;
462;SDS011;218;51.902;9.542;2022-11-20T02:06:16;16.98;;;15.05;;
462;SDS011;218;51.902;9.542;2022-11-20T02:08:47;14.48;;;11.90;;
462;SDS011;218;51.902;9.542;2022-11-20T02:11:14;16.48;;;11.23;;
462;SDS011;218;51.902;9.542;2022-11-20T02:13:41;15.43;;;11.43;;
462;SDS011;218;51.902;9.542;2022-11-20T02:16:16;16.45;;;10.90;;
462;SDS011;218;51.902;9.542;2022-11-20T02:18:46;14.40;;;11.00;;
462;SDS011;218;51.902;9.542;2022-11-20T02:21:16;17.45;;;10.27;;
462;SDS011;218;51.902;9.542;2022-11-20T02:26:39;11.13;;;9.95;;
462;SDS011;218;51.902;9.542;2022-11-20T02:29:13;12.10;;;9.95;;
462;SDS011;218;51.902;9.542;2022-11-20T02:31:43;13.43;;;10.90;;
462;SDS011;218;51.902;9.542;2022-11-20T02:34:11;17.02;;;11.10;;
462;SDS011;218;51.902;9.542;2022-11-20T02:36:39;14.35;;;10.43;;
462;SDS011;218;51.902;9.542;2022-11-20T02:39:08;11.82;;;10.70;;
462;SDS011;218;51.902;9.542;2022-11-20T02:41:37;12.93;;;11.57;;
462;SDS011;218;51.902;9.542;2022-11-20T02:44:05;12.73;;;10.45;;
462;SDS011;218;51.902;9.542;2022-11-20T02:46:32;14.02;;;11.80;;
462;SDS011;218;51.902;9.542;2022-11-20T02:49:00;12.38;;;10.70;;
462;SDS011;218;51.902;9.542;2022-11-20T02:51:28;12.40;;;9.75;;
462;SDS011;218;51.902;9.542;2022-11-20T02:53:55;15.15;;;12.10;;
462;SDS011;218;51.902;9.542;2022-11-20T02:56:24;20.05;;;12.70;;
462;SDS011;218;51.902;9.542;2022-11-20T02:58:51;16.10;;;13.00;;
462;SDS011;218;51.902;9.542;2022-11-20T03:01:18;21.48;;;14.25;;
462;SDS011;218;51.902;9.542;2022-11-20T03:03:45;22.08;;;14.77;;
462;SDS011;218;51.902;9.542;2022-11-20T03:06:13;20.95;;;15.65;;
462;SDS011;218;51.902;9.542;2022-11-20T03:08:40;29.42;;;15.90;;
462;SDS011;218;51.902;9.542;2022-11-20T03:11:07;27.90;;;16.45;;
462;SDS011;218;51.902;9.542;2022-11-20T03:13:36;25.17;;;15.85;;
462;SDS011;218;51.902;9.542;2022-11-20T03:16:07;22.75;;;15.05;;
462;SDS011;218;51.902;9.542;2022-11-20T03:18:35;22.95;;;16.48;;
462;SDS011;218;51.902;9.542;2022-11-20T03:21:01;20.08;;;13.98;;
462;SDS011;218;51.902;9.542;2022-11-20T03:23:29;55.25;;;18.58;;
462;SDS011;218;51.902;9.542;2022-11-20T03:26:06;27.33;;;15.85;;
462;SDS011;218;51.902;9.542;2022-11-20T03:28:39;20.02;;;15.20;;
462;SDS011;218;51.902;9.542;2022-11-20T03:31:07;20.65;;;15.73;;
462;SDS011;218;51.902;9.542;2022-11-20T03:33:35;27.67;;;15.85;;
462;SDS011;218;51.902;9.542;2022-11-20T03:36:03;28.40;;;16.23;;
462;SDS011;218;51.902;9.542;2022-11-20T03:38:32;51.20;;;18.33;;
462;SDS011;218;51.902;9.542;2022-11-20T03:41:00;27.35;;;15.95;;
462;SDS011;218;51.902;9.542;2022-11-20T03:43:28;30.70;;;15.63;;
462;SDS011;218;51.902;9.542;2022-11-20T03:45:57;25.40;;;14.13;;
462;SDS011;218;51.902;9.542;2022-11-20T03:48:24;24.73;;;14.48;;
462;SDS011;218;51.902;9.542;2022-11-20T03:50:51;23.55;;;14.60;;
462;SDS011;218;51.902;9.542;2022-11-20T03:53:19;26.58;;;12.70;;
462;SDS011;218;51.902;9.542;2022-11-20T03:55:50;24.35;;;13.48;;
462;SDS011;218;51.902;9.542;2022-11-20T03:58:17;28.33;;;17.33;;
462;SDS011;218;51.902;9.542;2022-11-20T04:00:44;17.25;;;12.40;;
462;SDS011;218;51.902;9.542;2022-11-20T04:03:12;18.25;;;12.40;;
462;SDS011;218;51.902;9.542;2022-11-20T04:05:42;20.40;;;12.60;;
462;SDS011;218;51.902;9.542;2022-11-20T04:08:09;19.00;;;13.00;;
462;SDS011;218;51.902;9.542;2022-11-20T04:10:36;17.42;;;12.68;;
462;SDS011;218;51.902;9.542;2022-11-20T04:13:03;19.95;;;12.93;;
462;SDS011;218;51.902;9.542;2022-11-20T04:15:30;22.25;;;12.80;;
462;SDS011;218;51.902;9.542;2022-11-20T04:17:57;21.75;;;12.70;;
462;SDS011;218;51.902;9.542;2022-11-20T04:20:25;24.52;;;13.73;;
462;SDS011;218;51.902;9.542;2022-11-20T04:22:52;19.70;;;12.50;;
462;SDS011;218;51.902;9.542;2022-11-20T04:25:20;19.20;;;13.90;;
462;SDS011;218;51.902;9.542;2022-11-20T04:27:47;21.83;;;14.60;;
462;SDS011;218;51.902;9.542;2022-11-20T04:30:14;22.98;;;14.25;;
462;SDS011;218;51.902;9.542;2022-11-20T04:32:41;19.50;;;14.82;;
462;SDS011;218;51.902;9.542;2022-11-20T04:35:08;23.85;;;13.82;;
462;SDS011;218;51.902;9.542;2022-11-20T04:37:36;20.42;;;13.13;;
462;SDS011;218;51.902;9.542;2022-11-20T04:40:03;17.38;;;12.63;;
462;SDS011;218;51.902;9.542;2022-11-20T04:42:31;19.60;;;13.43;;
462;SDS011;218;51.902;9.542;2022-11-20T04:44:58;21.00;;;12.00;;
462;SDS011;218;51.902;9.542;2022-11-20T04:47:25;19.40;;;12.93;;
462;SDS011;218;51.902;9.542;2022-11-20T04:49:52;24.92;;;13.60;;
462;SDS011;218;51.902;9.542;2022-11-20T04:52:19;18.55;;;12.57;;
462;SDS011;218;51.902;9.542;2022-11-20T04:54:47;15.65;;;11.80;;
462;SDS011;218;51.902;9.542;2022-11-20T04:57:15;17.92;;;11.23;;
462;SDS011;218;51.902;9.542;2022-11-20T04:59:42;17.15;;;13.10;;
462;SDS011;218;51.902;9.542;2022-11-20T05:02:09;19.42;;;13.05;;
462;SDS011;218;51.902;9.542;2022-11-20T05:04:36;25.52;;;12.57;;
462;SDS011;218;51.902;9.542;2022-11-20T05:07:03;17.25;;;12.38;;
462;SDS011;218;51.902;9.542;2022-11-20T05:09:30;13.73;;;11.82;;
462;SDS011;218;51.902;9.542;2022-11-20T05:11:58;17.02;;;12.30;;
462;SDS011;218;51.902;9.542;2022-11-20T05:14:25;19.40;;;11.52;;
462;SDS011;218;51.902;9.542;2022-11-20T05:16:52;17.70;;;11.40;;
462;SDS011;218;51.902;9.542;2022-11-20T05:19:19;19.95;;;12.98;;
462;SDS011;218;51.902;9.542;2022-11-20T05:21:46;16.35;;;13.45;;
462;SDS011;218;51.902;9.542;2022-11-20T05:24:13;20.27;;;13.45;;
462;SDS011;218;51.902;9.542;2022-11-20T05:26:40;15.55;;;11.95;;
462;SDS011;218;51.902;9.542;2022-11-20T05:29:10;15.57;;;12.15;;
462;SDS011;218;51.902;9.542;2022-11-20T05:31:38;17.95;;;11.90;;
462;SDS011;218;51.902;9.542;2022-11-20T05:34:06;16.90;;;11.38;;
462;SDS011;218;51.902;9.542;2022-11-20T05:36:33;13.30;;;10.30;;
462;SDS011;218;51.902;9.542;2022-11-20T05:39:00;17.42;;;11.77;;
462;SDS011;218;51.902;9.542;2022-11-20T05:41:27;15.35;;;11.35;;
462;SDS011;218;51.902;9.542;2022-11-20T05:43:55;19.38;;;11.70;;
462;SDS011;218;51.902;9.542;2022-11-20T05:46:24;19.20;;;12.98;;
462;SDS011;218;51.902;9.542;2022-11-20T05:48:51;18.08;;;11.65;;
462;SDS011;218;51.902;9.542;2022-11-20T05:51:18;18.08;;;14.90;;
462;SDS011;218;51.902;9.542;2022-11-20T05:53:46;17.77;;;13.15;;
462;SDS011;218;51.902;9.542;2022-11-20T05:56:14;18.67;;;13.05;;
462;SDS011;218;51.902;9.542;2022-11-20T05:58:41;17.33;;;13.45;;
462;SDS011;218;51.902;9.542;2022-11-20T06:01:09;22.60;;;14.50;;
462;SDS011;218;51.902;9.542;2022-11-20T06:03:39;16.58;;;12.73;;
462;SDS011;218;51.902;9.542;2022-11-20T06:06:08;22.38;;;13.75;;
462;SDS011;218;51.902;9.542;2022-11-20T06:08:35;16.60;;;12.27;;
462;SDS011;218;51.902;9.542;2022-11-20T06:11:03;18.90;;;12.88;;
462;SDS011;218;51.902;9.542;2022-11-20T06:13:30;19.52;;;13.25;;
462;SDS011;218;51.902;9.542;2022-11-20T06:15:58;21.70;;;14.00;;
462;SDS011;218;51.902;9.542;2022-11-20T06:18:25;15.88;;;12.00;;
462;SDS011;218;51.902;9.542;2022-11-20T06:21:00;15.10;;;11.90;;
462;SDS011;218;51.902;9.542;2022-11-20T06:23:28;20.85;;;13.25;;
462;SDS011;218;51.902;9.542;2022-11-20T06:25:56;17.35;;;11.88;;
462;SDS011;218;51.902;9.542;2022-11-20T06:28:24;15.43;;;11.60;;
462;SDS011;218;51.902;9.542;2022-11-20T06:30:50;18.48;;;13.50;;
462;SDS011;218;51.902;9.542;2022-11-20T06:33:17;16.45;;;13.43;;
462;SDS011;218;51.902;9.542;2022-11-20T06:35:44;21.30;;;13.50;;
462;SDS011;218;51.902;9.542;2022-11-20T06:38:13;22.65;;;14.65;;
462;SDS011;218;51.902;9.542;2022-11-20T06:40:40;20.08;;;14.23;;
462;SDS011;218;51.902;9.542;2022-11-20T06:43:07;20.17;;;13.45;;
462;SDS011;218;51.902;9.542;2022-11-20T06:45:34;19.52;;;15.40;;
462;SDS011;218;51.902;9.542;2022-11-20T06:48:01;16.48;;;12.10;;
462;SDS011;218;51.902;9.542;2022-11-20T06:50:28;23.95;;;14.98;;
462;SDS011;218;51.902;9.542;2022-11-20T06:52:55;18.48;;;13.50;;
462;SDS011;218;51.902;9.542;2022-11-20T06:55:23;20.40;;;14.45;;
462;SDS011;218;51.902;9.542;2022-11-20T06:57:50;22.13;;;14.55;;
462;SDS011;218;51.902;9.542;2022-11-20T07:00:17;19.63;;;14.55;;
462;SDS011;218;51.902;9.542;2022-11-20T07:02:44;21.67;;;14.25;;
462;SDS011;218;51.902;9.542;2022-11-20T07:05:11;19.95;;;14.30;;
462;SDS011;218;51.902;9.542;2022-11-20T07:07:38;20.13;;;15.63;;
462;SDS011;218;51.902;9.542;2022-11-20T07:10:05;28.48;;;17.17;;
462;SDS011;218;51.902;9.542;2022-11-20T07:12:34;25.90;;;17.85;;
462;SDS011;218;51.902;9.542;2022-11-20T07:15:01;24.92;;;17.45;;
462;SDS011;218;51.902;9.542;2022-11-20T07:17:28;19.20;;;14.40;;
462;SDS011;218;51.902;9.542;2022-11-20T07:19:55;20.17;;;14.35;;
462;SDS011;218;51.902;9.542;2022-11-20T07:22:22;20.50;;;14.40;;
462;SDS011;218;51.902;9.542;2022-11-20T07:24:49;18.85;;;13.57;;
462;SDS011;218;51.902;9.542;2022-11-20T07:27:16;21.70;;;14.32;;
462;SDS011;218;51.902;9.542;2022-11-20T07:29:44;19.08;;;13.65;;
462;SDS011;218;51.902;9.542;2022-11-20T07:32:11;18.73;;;11.77;;
462;SDS011;218;51.902;9.542;2022-11-20T07:34:38;19.35;;;13.65;;
462;SDS011;218;51.902;9.542;2022-11-20T07:37:05;22.05;;;12.25;;
462;SDS011;218;51.902;9.542;2022-11-20T07:39:32;18.17;;;13.05;;
462;SDS011;218;51.902;9.542;2022-11-20T07:41:59;22.05;;;14.80;;
462;SDS011;218;51.902;9.542;2022-11-20T07:44:26;21.30;;;15.68;;
462;SDS011;218;51.902;9.542;2022-11-20T07:46:54;15.93;;;12.98;;
462;SDS011;218;51.902;9.542;2022-11-20T07:49:21;20.58;;;14.57;;
462;SDS011;218;51.902;9.542;2022-11-20T07:51:49;17.75;;;14.25;;
462;SDS011;218;51.902;9.542;2022-11-20T07:54:18;22.70;;;16.30;;
462;SDS011;218;51.902;9.542;2022-11-20T07:56:48;19.75;;;14.27;;
462;SDS011;218;51.902;9.542;2022-11-20T07:59:15;23.55;;;17.08;;
462;SDS011;218;51.902;9.542;2022-11-20T08:01:42;29.70;;;17.50;;
462;SDS011;218;51.902;9.542;2022-11-20T08:04:10;24.92;;;17.52;;
462;SDS011;218;51.902;9.542;2022-11-20T08:06:37;24.88;;;16.95;;
462;SDS011;218;51.902;9.542;2022-11-20T08:09:04;26.52;;;18.08;;
462;SDS011;218;51.902;9.542;2022-11-20T08:11:31;24.48;;;17.83;;
462;SDS011;218;51.902;9.542;2022-11-20T08:14:18;24.85;;;18.17;;
462;SDS011;218;51.902;9.542;2022-11-20T08:16:45;34.92;;;19.75;;
462;SDS011;218;51.902;9.542;2022-11-20T08:19:15;29.80;;;19.75;;
462;SDS011;218;51.902;9.542;2022-11-20T08:21:43;30.70;;;19.05;;
462;SDS011;218;51.902;9.542;2022-11-20T08:24:11;30.65;;;21.67;;
462;SDS011;218;51.902;9.542;2022-11-20T08:26:38;34.13;;;22.02;;
462;SDS011;218;51.902;9.542;2022-11-20T08:29:06;34.47;;;23.55;;
462;SDS011;218;51.902;9.542;2022-11-20T08:31:33;33.42;;;25.13;;
462;SDS011;218;51.902;9.542;2022-11-20T08:34:00;36.45;;;24.50;;
462;SDS011;218;51.902;9.542;2022-11-20T08:36:32;40.58;;;25.60;;
462;SDS011;218;51.902;9.542;2022-11-20T08:38:59;39.70;;;31.27;;
462;SDS011;218;51.902;9.542;2022-11-20T08:41:26;45.28;;;25.75;;
462;SDS011;218;51.902;9.542;2022-11-20T08:43:54;42.03;;;30.85;;
462;SDS011;218;51.902;9.542;2022-11-20T08:46:23;63.90;;;41.78;;
462;SDS011;218;51.902;9.542;2022-11-20T08:48:50;43.92;;;28.98;;
462;SDS011;218;51.902;9.542;2022-11-20T08:51:17;34.42;;;26.58;;
462;SDS011;218;51.902;9.542;2022-11-20T08:53:47;36.40;;;25.67;;
462;SDS011;218;51.902;9.542;2022-11-20T08:56:14;37.92;;;26.10;;
462;SDS011;218;51.902;9.542;2022-11-20T08:58:42;30.65;;;21.85;;
462;SDS011;218;51.902;9.542;2022-11-20T09:01:09;29.50;;;20.92;;
462;SDS011;218;51.902;9.542;2022-11-20T09:03:37;27.63;;;20.42;;
462;SDS011;218;51.902;9.542;2022-11-20T09:06:05;26.17;;;20.73;;
462;SDS011;218;51.902;9.542;2022-11-20T09:08:33;58.83;;;49.22;;
462;SDS011;218;51.902;9.542;2022-11-20T09:11:03;36.92;;;26.63;;
462;SDS011;218;51.902;9.542;2022-11-20T09:13:30;28.75;;;21.48;;
462;SDS011;218;51.902;9.542;2022-11-20T09:15:58;23.98;;;18.63;;
462;SDS011;218;51.902;9.542;2022-11-20T09:18:28;23.15;;;20.35;;
462;SDS011;218;51.902;9.542;2022-11-20T09:20:56;40.45;;;34.67;;
462;SDS011;218;51.902;9.542;2022-11-20T09:23:24;27.33;;;24.33;;
462;SDS011;218;51.902;9.542;2022-11-20T09:25:51;82.13;;;73.35;;
462;SDS011;218;51.902;9.542;2022-11-20T09:28:21;23.48;;;20.55;;
462;SDS011;218;51.902;9.542;2022-11-20T09:30:48;22.60;;;20.25;;
462;SDS011;218;51.902;9.542;2022-11-20T09:33:15;22.25;;;19.85;;
462;SDS011;218;51.902;9.542;2022-11-20T09:35:42;25.47;;;21.37;;
462;SDS011;218;51.902;9.542;2022-11-20T09:38:10;21.52;;;19.50;;
462;SDS011;218;51.902;9.542;2022-11-20T09:40:39;21.73;;;19.53;;
462;SDS011;218;51.902;9.542;2022-11-20T09:43:12;21.90;;;19.47;;
462;SDS011;218;51.902;9.542;2022-11-20T09:45:50;23.37;;;20.87;;
462;SDS011;218;51.902;9.542;2022-11-20T09:48:48;24.80;;;21.15;;
462;SDS011;218;51.902;9.542;2022-11-20T09:51:26;21.85;;;19.38;;
462;SDS011;218;51.902;9.542;2022-11-20T09:54:05;21.52;;;17.55;;
462;SDS011;218;51.902;9.542;2022-11-20T09:56:35;20.48;;;18.38;;
462;SDS011;218;51.902;9.542;2022-11-20T09:59:04;20.85;;;18.58;;
462;SDS011;218;51.902;9.542;2022-11-20T10:01:35;18.38;;;16.48;;
462;SDS011;218;51.902;9.542;2022-11-20T10:04:06;18.70;;;16.50;;
462;SDS011;218;51.902;9.542;2022-11-20T10:06:33;19.52;;;16.60;;
462;SDS011;218;51.902;9.542;2022-11-20T10:09:03;20.55;;;15.85;;
462;SDS011;218;51.902;9.542;2022-11-20T10:11:35;21.52;;;16.90;;
462;SDS011;218;51.902;9.542;2022-11-20T10:14:16;18.90;;;15.80;;
462;SDS011;218;51.902;9.542;2022-11-20T10:16:50;20.50;;;15.82;;
462;SDS011;218;51.902;9.542;2022-11-20T10:19:22;18.33;;;15.10;;
462;SDS011;218;51.902;9.542;2022-11-20T10:22:13;16.90;;;15.18;;
462;SDS011;218;51.902;9.542;2022-11-20T10:24:51;17.80;;;15.55;;
462;SDS011;218;51.902;9.542;2022-11-20T10:27:33;16.90;;;15.10;;
462;SDS011;218;51.902;9.542;2022-11-20T10:30:15;16.73;;;14.90;;
462;SDS011;218;51.902;9.542;2022-11-20T10:32:45;17.38;;;15.57;;
462;SDS011;218;51.902;9.542;2022-11-20T10:35:19;16.45;;;14.70;;
462;SDS011;218;51.902;9.542;2022-11-20T10:37:48;16.05;;;14.63;;
462;SDS011;218;51.902;9.542;2022-11-20T10:40:21;17.42;;;15.65;;
462;SDS011;218;51.902;9.542;2022-11-20T10:42:51;18.15;;;16.55;;
462;SDS011;218;51.902;9.542;2022-11-20T10:45:21;18.55;;;16.10;;
462;SDS011;218;51.902;9.542;2022-11-20T10:48:10;19.08;;;17.25;;
462;SDS011;218;51.902;9.542;2022-11-20T10:50:40;17.13;;;14.53;;
462;SDS011;218;51.902;9.542;2022-11-20T10:53:19;16.60;;;14.13;;
462;SDS011;218;51.902;9.542;2022-11-20T10:55:58;16.52;;;14.68;;
462;SDS011;218;51.902;9.542;2022-11-20T10:58:33;17.33;;;15.65;;
462;SDS011;218;51.902;9.542;2022-11-20T11:01:13;17.98;;;15.70;;
462;SDS011;218;51.902;9.542;2022-11-20T11:03:42;17.95;;;16.00;;
462;SDS011;218;51.902;9.542;2022-11-20T11:06:12;19.20;;;16.92;;
462;SDS011;218;51.902;9.542;2022-11-20T11:08:45;34.10;;;26.95;;
462;SDS011;218;51.902;9.542;2022-11-20T11:11:18;25.27;;;21.70;;
462;SDS011;218;51.902;9.542;2022-11-20T11:13:47;16.50;;;14.20;;
462;SDS011;218;51.902;9.542;2022-11-20T11:16:21;18.75;;;15.48;;
462;SDS011;218;51.902;9.542;2022-11-20T11:18:51;13.90;;;12.43;;
462;SDS011;218;51.902;9.542;2022-11-20T11:21:29;17.98;;;12.43;;
462;SDS011;218;51.902;9.542;2022-11-20T11:23:57;17.30;;;12.13;;
462;SDS011;218;51.902;9.542;2022-11-20T11:26:24;13.23;;;11.65;;
462;SDS011;218;51.902;9.542;2022-11-20T11:28:52;23.35;;;20.98;;
462;SDS011;218;51.902;9.542;2022-11-20T11:31:22;14.20;;;12.70;;
462;SDS011;218;51.902;9.542;2022-11-20T11:33:51;13.45;;;12.13;;
462;SDS011;218;51.902;9.542;2022-11-20T11:36:19;14.63;;;12.60;;
462;SDS011;218;51.902;9.542;2022-11-20T11:38:50;16.15;;;13.23;;
462;SDS011;218;51.902;9.542;2022-11-20T11:41:19;15.02;;;11.85;;
462;SDS011;218;51.902;9.542;2022-11-20T11:43:52;15.95;;;12.93;;
462;SDS011;218;51.902;9.542;2022-11-20T11:46:37;14.35;;;12.40;;
462;SDS011;218;51.902;9.542;2022-11-20T11:49:14;16.95;;;13.25;;
462;SDS011;218;51.902;9.542;2022-11-20T11:51:46;14.15;;;12.63;;
462;SDS011;218;51.902;9.542;2022-11-20T11:54:24;15.95;;;13.50;;
462;SDS011;218;51.902;9.542;2022-11-20T11:56:53;15.20;;;13.25;;
462;SDS011;218;51.902;9.542;2022-11-20T11:59:22;17.02;;;13.80;;
462;SDS011;218;51.902;9.542;2022-11-20T12:01:54;13.38;;;11.57;;
462;SDS011;218;51.902;9.542;2022-11-20T12:04:26;15.48;;;12.23;;
462;SDS011;218;51.902;9.542;2022-11-20T12:07:07;13.20;;;11.80;;
462;SDS011;218;51.902;9.542;2022-11-20T12:09:41;16.88;;;13.50;;
462;SDS011;218;51.902;9.542;2022-11-20T12:12:15;15.77;;;14.23;;
462;SDS011;218;51.902;9.542;2022-11-20T12:14:45;15.38;;;13.40;;
462;SDS011;218;51.902;9.542;2022-11-20T12:17:14;16.70;;;13.27;;
462;SDS011;218;51.902;9.542;2022-11-20T12:19:44;13.07;;;11.57;;
462;SDS011;218;51.902;9.542;2022-11-20T12:22:13;14.30;;;11.40;;
462;SDS011;218;51.902;9.542;2022-11-20T12:24:52;17.92;;;12.68;;
462;SDS011;218;51.902;9.542;2022-11-20T12:27:28;13.63;;;12.07;;
462;SDS011;218;51.902;9.542;2022-11-20T12:30:04;14.18;;;12.65;;
462;SDS011;218;51.902;9.542;2022-11-20T12:32:48;14.05;;;11.38;;
462;SDS011;218;51.902;9.542;2022-11-20T12:35:47;18.20;;;13.27;;
462;SDS011;218;51.902;9.542;2022-11-20T12:38:37;14.68;;;13.18;;
462;SDS011;218;51.902;9.542;2022-11-20T12:41:43;15.25;;;11.80;;
462;SDS011;218;51.902;9.542;2022-11-20T12:44:52;13.68;;;11.30;;
462;SDS011;218;51.902;9.542;2022-11-20T12:47:47;15.35;;;13.20;;
462;SDS011;218;51.902;9.542;2022-11-20T12:50:37;13.35;;;11.88;;
462;SDS011;218;51.902;9.542;2022-11-20T12:53:16;14.43;;;11.02;;
462;SDS011;218;51.902;9.542;2022-11-20T12:55:54;13.70;;;11.82;;
462;SDS011;218;51.902;9.542;2022-11-20T12:58:31;13.43;;;11.40;;
462;SDS011;218;51.902;9.542;2022-11-20T13:01:05;14.25;;;11.10;;
462;SDS011;218;51.902;9.542;2022-11-20T13:03:58;12.90;;;11.00;;
462;SDS011;218;51.902;9.542;2022-11-20T13:06:35;15.27;;;12.27;;
462;SDS011;218;51.902;9.542;2022-11-20T13:09:04;12.05;;;9.68;;
462;SDS011;218;51.902;9.542;2022-11-20T13:11:40;13.60;;;10.68;;
462;SDS011;218;51.902;9.542;2022-11-20T13:14:12;16.83;;;11.75;;
462;SDS011;218;51.902;9.542;2022-11-20T13:16:51;15.15;;;13.65;;
462;SDS011;218;51.902;9.542;2022-11-20T13:19:23;12.80;;;10.63;;
462;SDS011;218;51.902;9.542;2022-11-20T13:21:52;16.00;;;12.43;;
462;SDS011;218;51.902;9.542;2022-11-20T13:24:21;15.25;;;12.13;;
462;SDS011;218;51.902;9.542;2022-11-20T13:27:04;17.73;;;13.80;;
462;SDS011;218;51.902;9.542;2022-11-20T13:29:44;17.23;;;13.10;;
462;SDS011;218;51.902;9.542;2022-11-20T13:32:15;17.25;;;13.27;;
462;SDS011;218;51.902;9.542;2022-11-20T13:34:53;13.65;;;11.10;;
462;SDS011;218;51.902;9.542;2022-11-20T13:37:24;14.10;;;12.13;;
462;SDS011;218;51.902;9.542;2022-11-20T13:40:05;16.80;;;13.82;;
462;SDS011;218;51.902;9.542;2022-11-20T13:42:43;17.13;;;14.98;;
462;SDS011;218;51.902;9.542;2022-11-20T13:45:21;20.42;;;14.90;;
462;SDS011;218;51.902;9.542;2022-11-20T13:47:50;19.73;;;14.15;;
462;SDS011;218;51.902;9.542;2022-11-20T13:50:18;16.90;;;13.57;;
462;SDS011;218;51.902;9.542;2022-11-20T13:52:49;17.10;;;13.95;;
462;SDS011;218;51.902;9.542;2022-11-20T13:55:25;20.33;;;12.63;;
462;SDS011;218;51.902;9.542;2022-11-20T13:58:04;17.38;;;13.13;;
462;SDS011;218;51.902;9.542;2022-11-20T14:00:43;18.60;;;14.00;;
462;SDS011;218;51.902;9.542;2022-11-20T14:03:16;18.48;;;13.68;;
462;SDS011;218;51.902;9.542;2022-11-20T14:05:47;18.10;;;13.27;;
462;SDS011;218;51.902;9.542;2022-11-20T14:08:21;17.40;;;13.02;;
462;SDS011;218;51.902;9.542;2022-11-20T14:11:03;20.70;;;12.73;;
462;SDS011;218;51.902;9.542;2022-11-20T14:13:31;18.52;;;13.43;;
462;SDS011;218;51.902;9.542;2022-11-20T14:15:58;15.43;;;12.48;;
462;SDS011;218;51.902;9.542;2022-11-20T14:18:25;19.33;;;12.70;;
462;SDS011;218;51.902;9.542;2022-11-20T14:20:53;17.17;;;13.45;;
462;SDS011;218;51.902;9.542;2022-11-20T14:23:23;20.65;;;12.75;;
462;SDS011;218;51.902;9.542;2022-11-20T14:25:51;18.65;;;13.15;;
462;SDS011;218;51.902;9.542;2022-11-20T14:28:21;18.92;;;12.52;;
462;SDS011;218;51.902;9.542;2022-11-20T14:30:52;20.10;;;13.48;;
462;SDS011;218;51.902;9.542;2022-11-20T14:33:20;16.55;;;12.23;;
462;SDS011;218;51.902;9.542;2022-11-20T14:35:50;19.00;;;11.90;;
462;SDS011;218;51.902;9.542;2022-11-20T14:38:20;14.45;;;11.30;;
462;SDS011;218;51.902;9.542;2022-11-20T14:40:51;18.05;;;12.45;;
462;SDS011;218;51.902;9.542;2022-11-20T14:43:19;19.45;;;13.55;;
462;SDS011;218;51.902;9.542;2022-11-20T14:45:54;16.48;;;12.13;;
462;SDS011;218;51.902;9.542;2022-11-20T14:48:24;18.33;;;12.90;;
462;SDS011;218;51.902;9.542;2022-11-20T14:50:55;19.38;;;12.52;;
462;SDS011;218;51.902;9.542;2022-11-20T14:53:23;20.13;;;13.23;;
462;SDS011;218;51.902;9.542;2022-11-20T14:55:54;23.60;;;13.57;;
462;SDS011;218;51.902;9.542;2022-11-20T14:58:24;16.75;;;11.70;;
462;SDS011;218;51.902;9.542;2022-11-20T15:00:53;18.40;;;13.13;;
462;SDS011;218;51.902;9.542;2022-11-20T15:03:22;20.52;;;13.73;;
462;SDS011;218;51.902;9.542;2022-11-20T15:05:51;19.48;;;12.65;;
462;SDS011;218;51.902;9.542;2022-11-20T15:08:18;22.02;;;13.35;;
462;SDS011;218;51.902;9.542;2022-11-20T15:10:46;23.50;;;14.57;;
462;SDS011;218;51.902;9.542;2022-11-20T15:13:16;18.02;;;12.57;;
462;SDS011;218;51.902;9.542;2022-11-20T15:15:52;19.20;;;13.65;;
462;SDS011;218;51.902;9.542;2022-11-20T15:18:21;17.73;;;12.50;;
462;SDS011;218;51.902;9.542;2022-11-20T15:20:49;19.58;;;12.23;;
462;SDS011;218;51.902;9.542;2022-11-20T15:23:17;19.80;;;12.90;;
462;SDS011;218;51.902;9.542;2022-11-20T15:25:46;20.35;;;13.70;;
462;SDS011;218;51.902;9.542;2022-11-20T15:28:16;20.60;;;14.40;;
462;SDS011;218;51.902;9.542;2022-11-20T15:30:44;19.70;;;14.20;;
462;SDS011;218;51.902;9.542;2022-11-20T15:33:14;23.63;;;15.65;;
462;SDS011;218;51.902;9.542;2022-11-20T15:35:41;21.85;;;15.07;;
462;SDS011;218;51.902;9.542;2022-11-20T15:38:08;29.35;;;18.42;;